Time;durP1;ratioP1;P1;durP2;ratioP2;P2;SDS_P1;SDS_P2;PMS_P1;PMS_P2;Temp;Humidity;BMP_temperature;BMP_pressure;BME280_temperature;BME280_humidity;BME280_pressure;Samples;Min_cycle;Max_cycle;Signal;HPM_P1;HPM_P2
2022/04/19 00:00:54;;;;;;;0.82;0.30;;;;;;;23.84;55.32;102143.84;5055566;28;20028;-74
2022/04/19 00:03:20;;;;;;;0.28;0.22;;;;;;;23.83;55.02;102135.78;5056965;28;20052;-70
2022/04/19 00:05:46;;;;;;;1.15;0.45;;;;;;;23.85;54.92;102133.72;5060830;28;20051;-71
2022/04/19 00:08:12;;;;;;;0.47;0.40;;;;;;;23.83;55.15;102138.53;5053103;28;20151;-75
2022/04/19 00:10:40;;;;;;;1.00;0.30;;;;;;;23.80;54.25;102148.00;5051565;28;20028;-71
2022/04/19 00:13:07;;;;;;;1.00;0.57;;;;;;;23.78;54.78;102138.22;5052921;28;20056;-73
2022/04/19 00:15:33;;;;;;;0.82;0.30;;;;;;;23.81;55.13;102148.84;5051451;28;20029;-76
2022/04/19 00:18:00;;;;;;;0.40;0.20;;;;;;;23.82;54.90;102158.78;5051531;28;20025;-72
2022/04/19 00:20:28;;;;;;;0.50;0.20;;;;;;;23.78;55.34;102160.19;5052664;28;20066;-72
2022/04/19 00:22:53;;;;;;;0.47;0.25;;;;;;;23.82;53.68;102172.53;5052549;28;20036;-76
2022/04/19 00:25:19;;;;;;;0.47;0.20;;;;;;;23.82;54.25;102156.03;5052574;28;20025;-73
2022/04/19 00:27:45;;;;;;;0.90;0.17;;;;;;;23.78;55.70;102160.19;5052661;28;20021;-70
2022/04/19 00:30:11;;;;;;;1.65;0.65;;;;;;;23.78;55.81;102165.69;5052510;28;20033;-74
2022/04/19 00:32:37;;;;;;;1.85;0.40;;;;;;;23.77;55.14;102163.97;5052526;28;20025;-74
2022/04/19 00:35:04;;;;;;;0.32;0.20;;;;;;;23.77;55.23;102164.81;5061615;28;20040;-67
2022/04/19 00:37:29;;;;;;;0.50;0.30;;;;;;;23.79;54.73;102172.88;5071203;28;20036;-75
2022/04/19 00:39:58;;;;;;;1.90;0.30;;;;;;;23.78;54.53;102176.66;5051251;28;20388;-75
2022/04/19 00:42:27;;;;;;;0.75;0.20;;;;;;;23.78;55.91;102176.66;5051557;28;20376;-71
2022/04/19 00:44:53;;;;;;;1.15;0.20;;;;;;;23.76;54.48;102174.09;5059780;28;20025;-72
2022/04/19 00:47:19;;;;;;;1.30;0.55;;;;;;;23.75;55.04;102177.03;5052204;28;20526;-75
2022/04/19 00:49:44;;;;;;;0.60;0.25;;;;;;;23.76;53.54;102167.75;5051131;28;20075;-73
2022/04/19 00:52:10;;;;;;;0.50;0.32;;;;;;;23.75;55.19;102175.13;5052176;28;20037;-70
2022/04/19 00:54:36;;;;;;;0.30;0.20;;;;;;;23.73;55.64;102184.56;5052336;28;20025;-75
2022/04/19 00:57:03;;;;;;;0.30;0.20;;;;;;;23.74;55.17;102191.78;5052294;28;20067;-75
2022/04/19 00:59:29;;;;;;;0.32;0.17;;;;;;;23.72;54.96;102193.84;5052090;28;20017;-71
2022/04/19 01:01:54;;;;;;;0.57;0.20;;;;;;;23.69;56.00;102187.69;5052341;28;20036;-75
2022/04/19 01:04:20;;;;;;;0.47;0.20;;;;;;;23.72;54.63;102197.44;5050825;28;20483;-74
2022/04/19 01:06:45;;;;;;;0.82;0.50;;;;;;;23.74;55.27;102197.28;5051667;28;20043;-71
2022/04/19 01:09:12;;;;;;;1.48;0.43;;;;;;;23.70;55.06;102194.88;5073044;28;20001;-68
2022/04/19 01:14:23;;;;;;;1.55;0.30;;;;;;;23.69;54.56;102195.91;5052064;28;20104;-74
2022/04/19 01:16:48;;;;;;;0.50;0.25;;;;;;;23.69;55.81;102193.16;5052455;28;20031;-71
2022/04/19 01:19:15;;;;;;;1.17;0.20;;;;;;;23.70;55.02;102200.38;5050973;28;20029;-76
2022/04/19 01:21:50;;;;;;;1.38;0.22;;;;;;;23.71;54.76;102198.47;5050750;28;20419;-73
2022/04/19 01:24:16;;;;;;;1.13;0.50;;;;;;;23.70;55.58;102205.00;5050733;28;20024;-71
2022/04/19 01:26:43;;;;;;;0.47;0.15;;;;;;;23.67;54.93;102202.59;5052093;28;20029;-75
2022/04/19 01:29:12;;;;;;;0.50;0.40;;;;;;;23.67;54.96;102192.47;5053753;28;20120;-72
2022/04/19 01:31:40;;;;;;;0.40;0.20;;;;;;;23.66;55.11;102196.25;5055547;28;20031;-72
2022/04/19 01:34:06;;;;;;;0.80;0.22;;;;;;;23.68;54.14;102196.94;5054321;28;20100;-71
2022/04/19 01:36:35;;;;;;;0.40;0.15;;;;;;;23.66;54.90;102190.75;5055653;28;20048;-76
2022/04/19 01:39:08;;;;;;;0.50;0.20;;;;;;;23.64;54.50;102198.31;5055762;28;20424;-74
2022/04/19 01:41:34;;;;;;;0.73;0.20;;;;;;;23.65;54.96;102204.66;5055643;28;20029;-71
2022/04/19 01:44:00;;;;;;;0.22;0.20;;;;;;;23.68;54.40;102199.69;5068209;28;20052;-71
2022/04/19 01:46:26;;;;;;;1.17;0.20;;;;;;;23.64;54.88;102192.81;5080178;28;20088;-70
2022/04/19 01:48:54;;;;;;;0.75;0.13;;;;;;;23.65;54.95;102200.03;5061480;28;20530;-72
2022/04/19 01:51:20;;;;;;;0.32;0.20;;;;;;;23.63;54.41;102202.09;5055410;28;20518;-72
2022/04/19 01:53:45;;;;;;;0.93;0.30;;;;;;;23.66;55.41;102207.22;5055365;28;20049;-76
2022/04/19 01:56:10;;;;;;;1.60;0.30;;;;;;;23.68;55.12;102198.81;5055383;28;20025;-72
2022/04/19 01:58:36;;;;;;;0.13;0.10;;;;;;;23.62;54.27;102200.38;5053947;28;20017;-72
2022/04/19 02:01:01;;;;;;;1.65;0.30;;;;;;;23.65;54.75;102205.50;5055432;28;20025;-76
2022/04/19 02:03:26;;;;;;;0.47;0.30;;;;;;;23.64;54.52;102202.94;5055170;28;20029;-74
2022/04/19 02:05:52;;;;;;;0.22;0.10;;;;;;;23.64;53.42;102198.31;5055381;28;20081;-71
2022/04/19 02:08:17;;;;;;;0.32;0.15;;;;;;;23.64;54.68;102198.31;5059689;28;20012;-72
2022/04/19 02:10:42;;;;;;;1.08;0.10;;;;;;;23.63;54.21;102196.59;5063995;28;20035;-75
2022/04/19 02:13:07;;;;;;;1.40;0.65;;;;;;;23.64;53.61;102197.44;5053887;28;20445;-71
2022/04/19 02:15:33;;;;;;;2.45;0.13;;;;;;;23.59;54.72;102197.97;5054980;28;20029;-72
2022/04/19 02:17:58;;;;;;;1.25;0.50;;;;;;;23.61;55.43;102193.16;5055067;28;20033;-76
2022/04/19 02:20:23;;;;;;;1.35;0.40;;;;;;;23.62;54.57;102205.84;5076597;28;20032;-68
2022/04/19 02:22:49;;;;;;;0.20;0.10;;;;;;;23.63;54.97;102196.59;5066246;28;20033;-70
2022/04/19 02:25:16;;;;;;;0.93;0.20;;;;;;;23.61;54.97;102198.66;5053587;28;20020;-76
2022/04/19 02:27:42;;;;;;;0.85;0.30;;;;;;;23.62;55.11;102197.63;5053438;28;20115;-72
2022/04/19 02:30:15;;;;;;;1.80;0.22;;;;;;;23.62;54.50;102205.00;5054797;28;20511;-70
2022/04/19 02:32:42;;;;;;;1.03;0.20;;;;;;;23.63;55.64;102202.09;5054819;28;20017;-74
2022/04/19 02:35:09;;;;;;;1.08;0.20;;;;;;;23.60;54.21;102207.94;5054747;28;20029;-75
2022/04/19 02:37:34;;;;;;;0.32;0.17;;;;;;;23.59;55.30;102206.22;5053186;28;20028;-72
2022/04/19 02:40:01;;;;;;;0.70;0.10;;;;;;;23.59;54.62;102217.19;5054756;28;20021;-71
2022/04/19 02:42:26;;;;;;;0.43;0.28;;;;;;;23.59;55.57;102222.69;5054340;28;20017;-74
2022/04/19 02:44:51;;;;;;;0.80;0.40;;;;;;;23.61;55.19;102220.63;5053159;28;20048;-72
2022/04/19 02:47:17;;;;;;;0.43;0.30;;;;;;;23.61;55.06;102219.75;5053025;28;20024;-70
2022/04/19 02:49:44;;;;;;;0.20;0.10;;;;;;;23.58;54.26;102220.13;5053197;28;20035;-74
2022/04/19 02:52:11;;;;;;;1.13;0.30;;;;;;;23.58;54.52;102225.59;5074025;28;20059;-67
2022/04/19 02:54:37;;;;;;;0.22;0.20;;;;;;;23.57;54.52;102230.25;5056389;28;20029;-70
2022/04/19 02:57:03;;;;;;;0.63;0.20;;;;;;;23.58;54.41;102239.34;5053070;28;20024;-74
2022/04/19 02:59:28;;;;;;;0.10;0.10;;;;;;;23.57;54.22;102235.72;5052785;28;20088;-74
2022/04/19 03:01:53;;;;;;;0.50;0.30;;;;;;;23.56;55.46;102239.47;5054266;28;20067;-70
2022/04/19 03:04:20;;;;;;;0.40;0.20;;;;;;;23.56;54.71;102250.47;5052764;28;20028;-71
2022/04/19 03:06:45;;;;;;;0.75;0.22;;;;;;;23.58;54.97;102248.44;5054164;28;20028;-74
2022/04/19 03:09:10;;;;;;;0.30;0.10;;;;;;;23.58;55.16;102253.06;5054138;28;20111;-72
2022/04/19 03:11:36;;;;;;;0.32;0.10;;;;;;;23.55;54.73;102237.75;5054246;28;20024;-70
2022/04/19 03:14:02;;;;;;;0.85;0.30;;;;;;;23.59;54.76;102241.91;5054124;28;20025;-75
2022/04/19 03:16:27;;;;;;;0.20;0.10;;;;;;;23.58;55.74;102248.44;5052460;28;20060;-74
2022/04/19 03:18:52;;;;;;;1.10;0.35;;;;;;;23.58;55.90;102242.94;5053963;28;20116;-71
2022/04/19 03:21:18;;;;;;;0.73;0.20;;;;;;;23.56;55.04;102244.97;5058838;28;20048;-74
2022/04/19 03:29:11;;;;;;;1.33;0.20;;;;;;;23.55;56.62;102235.03;5053799;28;20075;-70
2022/04/19 03:31:37;;;;;;;0.40;0.20;;;;;;;23.55;55.36;102242.41;5055408;28;20804;-72
2022/04/19 03:34:03;;;;;;;0.82;0.30;;;;;;;23.57;54.07;102249.47;5058488;28;20071;-74
2022/04/19 03:36:29;;;;;;;1.63;0.52;;;;;;;23.57;56.44;102251.34;5053366;28;20464;-70
2022/04/19 03:38:54;;;;;;;0.95;0.25;;;;;;;23.58;55.07;102242.94;5053533;28;20036;-72
2022/04/19 03:41:20;;;;;;;0.25;0.15;;;;;;;23.57;56.08;102235.72;5053270;28;20029;-74
2022/04/19 03:43:45;;;;;;;0.63;0.30;;;;;;;23.58;55.18;102248.44;5053408;28;20279;-73
2022/04/19 03:46:10;;;;;;;0.93;0.20;;;;;;;23.59;56.45;102238.31;5053320;28;20567;-70
2022/04/19 03:48:36;;;;;;;1.17;0.20;;;;;;;23.59;56.31;102238.31;5053232;28;20021;-74
2022/04/19 03:51:03;;;;;;;0.25;0.13;;;;;;;23.61;56.07;102238.97;5052047;28;20077;-74
2022/04/19 03:53:31;;;;;;;2.20;0.50;;;;;;;23.57;56.75;102241.22;5071877;28;20032;-68
2022/04/19 03:55:58;;;;;;;0.28;0.13;;;;;;;23.62;55.84;102241.56;5054344;28;20031;-75
2022/04/19 03:58:27;;;;;;;0.80;0.20;;;;;;;23.57;56.38;102254.09;5053103;28;20067;-74
2022/04/19 04:00:54;;;;;;;0.22;0.20;;;;;;;23.59;55.25;102260.25;5051926;28;20491;-71
2022/04/19 04:03:19;;;;;;;0.43;0.20;;;;;;;23.72;56.54;102259.75;5052914;28;20024;-70
2022/04/19 04:05:44;;;;;;;0.55;0.15;;;;;;;23.83;55.07;102262.13;5053054;28;20024;-75
2022/04/19 04:08:10;;;;;;;0.20;0.10;;;;;;;23.91;55.37;102270.38;5051664;28;20371;-73
2022/04/19 04:10:35;;;;;;;0.60;0.32;;;;;;;23.95;53.93;102277.22;5051756;28;20063;-71
2022/04/19 04:13:00;;;;;;;0.43;0.13;;;;;;;24.00;54.98;102270.16;5057420;28;20112;-70
2022/04/19 04:15:26;;;;;;;0.10;0.10;;;;;;;24.07;54.79;102274.97;5051626;28;20506;-73
2022/04/19 04:17:51;;;;;;;0.17;0.00;;;;;;;24.07;53.00;102274.97;5052897;28;20021;-72
2022/04/19 04:20:16;;;;;;;0.30;0.03;;;;;;;24.12;52.83;102278.91;5052682;28;20025;-71
2022/04/19 04:22:42;;;;;;;0.63;0.10;;;;;;;24.12;53.22;102278.91;5056324;28;20045;-71
2022/04/19 04:25:07;;;;;;;1.17;0.17;;;;;;;24.13;53.07;102282.50;5052940;28;20032;-73
2022/04/19 04:27:32;;;;;;;0.25;0.20;;;;;;;24.14;53.83;102282.31;5052617;28;20029;-72
2022/04/19 04:29:58;;;;;;;1.98;0.10;;;;;;;24.16;53.22;102283.00;5052688;28;20032;-71
2022/04/19 04:32:23;;;;;;;0.20;0.10;;;;;;;24.19;53.43;102284.56;5052515;28;20024;-70
2022/04/19 04:34:48;;;;;;;1.25;0.10;;;;;;;24.17;52.75;102279.22;5052623;28;20484;-74
2022/04/19 04:37:14;;;;;;;0.47;0.08;;;;;;;24.23;51.77;102288.66;5052499;28;20025;-73
2022/04/19 04:39:39;;;;;;;1.38;0.20;;;;;;;24.21;50.43;102294.34;5051234;28;20052;-70
2022/04/19 04:42:05;;;;;;;1.02;0.15;;;;;;;24.24;51.98;102296.72;5052803;28;20363;-71
2022/04/19 04:44:30;;;;;;;1.23;0.22;;;;;;;24.29;52.27;102302.59;5052327;28;20021;-71
2022/04/19 04:49:39;;;;;;;0.35;0.13;;;;;;;24.31;52.51;102307.91;5064887;28;20116;-68
2022/04/19 04:52:15;;;;;;;0.50;0.20;;;;;;;24.29;51.55;102308.09;5054850;28;20072;-72
2022/04/19 04:54:42;;;;;;;0.57;0.10;;;;;;;24.28;51.66;102314.56;5051109;28;20025;-74
2022/04/19 04:57:08;;;;;;;0.75;0.20;;;;;;;24.28;52.03;102316.47;5052352;28;20025;-72
2022/04/19 04:59:34;;;;;;;0.15;0.10;;;;;;;24.32;51.59;102317.00;5050923;28;20024;-71
2022/04/19 05:02:00;;;;;;;0.52;0.10;;;;;;;24.34;50.25;102312.19;5051133;28;20120;-75
2022/04/19 05:04:25;;;;;;;0.45;0.08;;;;;;;24.36;51.39;102318.41;5050921;28;20032;-74
2022/04/19 05:06:51;;;;;;;0.52;0.13;;;;;;;24.33;52.37;102313.22;5051000;28;20055;-71
2022/04/19 05:09:16;;;;;;;0.60;0.15;;;;;;;24.35;50.90;102316.66;5054701;28;20024;-69
2022/04/19 05:11:42;;;;;;;0.10;0.10;;;;;;;24.35;50.00;102305.66;5056384;28;20465;-75
2022/04/19 05:14:08;;;;;;;0.20;0.00;;;;;;;24.40;50.80;102308.75;5054995;28;20487;-73
2022/04/19 05:16:36;;;;;;;0.38;0.20;;;;;;;24.37;49.49;102306.38;5056153;28;20051;-71
2022/04/19 05:19:03;;;;;;;0.55;0.35;;;;;;;24.36;51.50;102311.00;5056204;28;20032;-71
2022/04/19 05:21:28;;;;;;;0.73;0.10;;;;;;;24.37;52.90;102312.72;5064183;28;20021;-70
2022/04/19 05:23:55;;;;;;;0.85;0.20;;;;;;;24.35;50.28;102316.66;5064673;28;20086;-72
2022/04/19 05:26:20;;;;;;;0.60;0.25;;;;;;;24.37;50.86;102320.97;5056812;28;20033;-68
2022/04/19 05:28:45;;;;;;;0.60;0.20;;;;;;;24.40;50.81;102320.59;5056032;28;20025;-68
2022/04/19 05:31:10;;;;;;;1.35;0.20;;;;;;;24.40;50.90;102317.00;5054666;28;20111;-68
2022/04/19 05:33:36;;;;;;;0.40;0.40;;;;;;;24.38;50.72;102321.81;5055695;28;20032;-68
2022/04/19 05:36:01;;;;;;;0.20;0.10;;;;;;;24.40;49.80;102319.75;5055984;28;20074;-69
2022/04/19 05:38:27;;;;;;;0.70;0.20;;;;;;;24.42;49.48;102324.03;5055601;28;20029;-68
2022/04/19 05:40:52;;;;;;;0.50;0.28;;;;;;;24.43;50.32;102316.63;5054503;28;20468;-68
2022/04/19 05:43:17;;;;;;;0.32;0.20;;;;;;;24.41;50.99;102321.47;5055552;28;20017;-68
2022/04/19 05:45:43;;;;;;;0.40;0.25;;;;;;;24.38;49.45;102324.56;5055659;28;20036;-68
2022/04/19 05:48:08;;;;;;;0.28;0.13;;;;;;;24.40;49.82;102319.75;5054400;28;20058;-68
2022/04/19 05:50:34;;;;;;;0.52;0.30;;;;;;;24.44;50.84;102326.59;5055483;28;20021;-69
2022/04/19 05:52:59;;;;;;;0.47;0.20;;;;;;;24.45;50.55;102329.16;5055363;28;20049;-69
2022/04/19 05:55:24;;;;;;;1.10;0.30;;;;;;;24.46;50.69;102330.03;5055744;28;20104;-68
2022/04/19 05:57:50;;;;;;;0.20;0.10;;;;;;;24.44;51.14;102327.47;5055517;28;20452;-69
2022/04/19 06:00:15;;;;;;;0.32;0.13;;;;;;;24.47;50.72;102331.75;5064009;28;20658;-69
2022/04/19 06:05:24;;;;;;;0.57;0.30;;;;;;;24.49;50.91;102335.16;5055724;28;20155;-69
2022/04/19 06:07:52;;;;;;;0.68;0.10;;;;;;;24.53;51.34;102336.56;5055347;28;20044;-68
2022/04/19 06:10:18;;;;;;;1.27;0.20;;;;;;;24.49;50.70;102335.16;5053829;28;20025;-68
2022/04/19 06:12:43;;;;;;;0.20;0.15;;;;;;;24.48;50.87;102342.56;5053891;28;20082;-68
2022/04/19 06:15:10;;;;;;;1.00;0.30;;;;;;;24.51;50.95;102339.44;5055185;28;20468;-69
2022/04/19 06:17:38;;;;;;;0.38;0.20;;;;;;;24.52;48.51;102340.31;5054921;28;20033;-69
2022/04/19 06:20:05;;;;;;;1.08;0.10;;;;;;;24.49;49.33;102346.16;5054675;28;20028;-68
2022/04/19 06:22:31;;;;;;;0.95;0.20;;;;;;;24.50;51.12;102350.63;5055139;28;20395;-69
2022/04/19 06:24:57;;;;;;;0.10;0.10;;;;;;;24.52;50.09;102340.31;5057834;28;20029;-69
2022/04/19 06:27:24;;;;;;;1.38;0.22;;;;;;;24.53;49.96;102345.66;5056712;28;20185;-68
2022/04/19 06:29:51;;;;;;;0.52;0.10;;;;;;;24.55;49.19;102349.09;5055150;28;20096;-68
2022/04/19 06:32:17;;;;;;;0.57;0.20;;;;;;;24.52;48.44;102351.31;5054780;28;20303;-68
2022/04/19 06:34:42;;;;;;;1.25;0.20;;;;;;;24.54;49.21;102343.75;5054774;28;20031;-69
2022/04/19 06:37:08;;;;;;;0.80;0.20;;;;;;;24.53;50.53;102351.16;5054780;28;20025;-68
2022/04/19 06:39:33;;;;;;;0.75;0.10;;;;;;;24.55;52.27;102361.97;5058633;28;20033;-68
2022/04/19 06:41:58;;;;;;;1.77;0.30;;;;;;;24.54;49.34;102360.25;5055172;28;20024;-68
2022/04/19 06:44:24;;;;;;;0.47;0.20;;;;;;;24.52;48.57;102356.81;5054468;28;20025;-68
2022/04/19 06:46:50;;;;;;;1.13;0.20;;;;;;;24.58;48.32;102356.13;5054566;28;20028;-69
2022/04/19 06:49:16;;;;;;;0.75;0.20;;;;;;;24.54;49.96;102360.25;5054368;28;20074;-68
2022/04/19 06:51:41;;;;;;;0.82;0.30;;;;;;;24.55;47.81;102361.97;5054343;28;20495;-68
2022/04/19 06:54:07;;;;;;;1.58;0.10;;;;;;;24.60;49.04;102365.03;5054519;28;20029;-68
2022/04/19 06:56:33;;;;;;;0.40;0.10;;;;;;;24.57;50.66;102358.00;5054216;28;20033;-69
2022/04/19 06:58:59;;;;;;;0.68;0.10;;;;;;;24.57;49.32;102365.41;5054555;28;20591;-68
2022/04/19 07:01:26;;;;;;;1.55;0.38;;;;;;;24.52;49.49;102368.69;5057162;28;20048;-68
2022/04/19 07:03:52;;;;;;;0.70;0.30;;;;;;;24.52;47.21;102371.44;5048119;28;20053;-67
2022/04/19 07:06:17;;;;;;;1.85;0.17;;;;;;;24.59;49.50;102364.19;5053953;28;20484;-65
2022/04/19 07:08:43;;;;;;;2.42;0.63;;;;;;;24.50;48.03;102369.88;5053884;28;20036;-67
2022/04/19 07:11:08;;;;;;;3.95;2.65;;;;;;;24.78;51.42;102370.31;5053886;28;20456;-67
2022/04/19 07:13:34;;;;;;;5.45;3.05;;;;;;;25.00;52.99;102372.31;5053622;28;20025;-64
2022/04/19 07:15:59;;;;;;;2.60;2.20;;;;;;;24.85;48.13;102368.56;5053328;28;20040;-69
2022/04/19 07:18:25;;;;;;;3.70;2.05;;;;;;;24.61;45.20;102377.75;5048557;28;20045;-67
2022/04/19 07:29:02;;;;;;;6.45;0.80;;;;;;;24.71;51.03;102380.31;5053438;28;20067;-66
2022/04/19 07:31:28;;;;;;;0.85;0.70;;;;;;;24.43;46.48;102380.72;5052330;28;20040;-65
2022/04/19 07:33:53;;;;;;;1.23;0.60;;;;;;;24.39;44.87;102384.00;5046555;28;20108;-67
2022/04/19 07:36:19;;;;;;;0.52;0.30;;;;;;;24.41;47.31;102382.78;5047056;28;20021;-67
2022/04/19 07:38:45;;;;;;;2.30;0.38;;;;;;;24.40;44.72;102382.97;5053433;28;20071;-66
2022/04/19 07:41:10;;;;;;;1.25;0.43;;;;;;;24.43;47.37;102385.38;5053159;28;20053;-67
2022/04/19 07:43:35;;;;;;;3.28;0.40;;;;;;;24.35;46.32;102382.63;5053041;28;20025;-67
2022/04/19 07:46:04;;;;;;;2.35;0.20;;;;;;;24.37;44.79;102386.94;5052066;28;20055;-65
2022/04/19 07:48:29;;;;;;;0.47;0.30;;;;;;;24.49;47.46;102387.41;5049193;28;20075;-68
2022/04/19 07:50:55;;;;;;;0.43;0.20;;;;;;;24.42;45.92;102392.75;5051978;28;20553;-68
2022/04/19 07:53:20;;;;;;;0.63;0.30;;;;;;;24.38;43.17;102393.28;5052537;28;20539;-68
2022/04/19 07:55:45;;;;;;;1.33;0.30;;;;;;;24.41;44.34;102387.44;5053041;28;20033;-67
2022/04/19 07:58:11;;;;;;;0.35;0.30;;;;;;;24.34;43.89;102398.25;5052805;28;20112;-67
2022/04/19 08:00:36;;;;;;;0.73;0.20;;;;;;;24.37;44.82;102397.94;5053424;28;20044;-67
2022/04/19 08:03:01;;;;;;;0.57;0.32;;;;;;;24.37;44.26;102403.44;5052422;28;20098;-67
2022/04/19 08:05:27;;;;;;;0.20;0.10;;;;;;;24.41;44.73;102396.53;5052274;28;20059;-67
2022/04/19 08:07:52;;;;;;;0.73;0.20;;;;;;;24.39;44.54;102403.25;5061058;28;20033;-68
2022/04/19 08:10:19;;;;;;;0.77;0.20;;;;;;;24.39;43.57;102406.00;5052834;28;20083;-68
2022/04/19 08:12:45;;;;;;;1.02;0.50;;;;;;;24.40;44.68;102403.06;5052954;28;20380;-68
2022/04/19 08:15:10;;;;;;;0.30;0.13;;;;;;;24.38;44.88;102404.28;5052424;28;20464;-68
2022/04/19 08:17:36;;;;;;;1.27;0.50;;;;;;;24.39;43.82;102406.00;5052403;28;20032;-67
2022/04/19 08:20:03;;;;;;;0.60;0.20;;;;;;;24.39;44.83;102411.50;5051491;28;20029;-67
2022/04/19 08:22:29;;;;;;;1.00;0.20;;;;;;;24.39;45.66;102411.50;5052600;28;20083;-68
2022/04/19 08:24:54;;;;;;;0.63;0.03;;;;;;;24.41;44.20;102409.44;5052202;28;20025;-67
2022/04/19 08:27:19;;;;;;;0.65;0.20;;;;;;;24.45;45.79;102416.28;5052168;28;20456;-67
2022/04/19 08:29:45;;;;;;;0.17;0.17;;;;;;;24.41;44.91;102415.78;5049485;28;20021;-67
2022/04/19 08:32:11;;;;;;;0.63;0.20;;;;;;;24.68;49.37;102409.00;5046706;28;20423;-67
2022/04/19 08:34:38;;;;;;;0.30;0.10;;;;;;;24.73;51.69;102408.50;5051039;28;20017;-67
2022/04/19 08:37:04;;;;;;;1.55;0.25;;;;;;;24.80;51.46;102410.34;5050009;28;20027;-67
2022/04/19 08:39:29;;;;;;;0.93;0.20;;;;;;;24.84;52.39;102410.84;5046257;28;20100;-67
2022/04/19 08:41:54;;;;;;;0.30;0.20;;;;;;;24.82;51.69;102413.78;5050712;28;20028;-65
2022/04/19 08:44:19;;;;;;;0.68;0.50;;;;;;;24.77;53.02;102407.97;5047702;28;20024;-64
2022/04/19 08:46:45;;;;;;;0.20;0.20;;;;;;;24.77;49.91;102405.22;5047846;28;20040;-66
2022/04/19 08:49:11;;;;;;;1.52;0.57;;;;;;;24.75;50.29;102406.44;5049456;28;20059;-67
2022/04/19 08:51:39;;;;;;;1.80;0.10;;;;;;;24.77;50.45;102413.47;5050172;28;20065;-66
2022/04/19 08:59:33;;;;;;;1.92;0.30;;;;;;;24.79;51.32;102414.13;5051050;28;20044;-66
2022/04/19 09:01:59;;;;;;;1.48;0.47;;;;;;;24.89;52.47;102413.94;5049275;28;20033;-67
2022/04/19 09:04:25;;;;;;;1.50;0.55;;;;;;;24.78;51.05;102426.19;5043709;28;20032;-67
2022/04/19 09:06:58;;;;;;;0.38;0.20;;;;;;;24.79;49.58;102425.13;5052356;28;20052;-66
2022/04/19 09:09:29;;;;;;;1.65;0.20;;;;;;;24.80;50.61;102424.09;5051543;28;20028;-66
2022/04/19 09:12:06;;;;;;;0.98;0.43;;;;;;;24.77;50.14;102421.72;5050929;28;20452;-66
2022/04/19 09:14:31;;;;;;;0.43;0.30;;;;;;;24.83;51.10;102432.00;5052164;28;20025;-66
2022/04/19 09:17:08;;;;;;;0.20;0.10;;;;;;;24.77;48.56;102421.72;5052257;28;20502;-66
2022/04/19 09:19:34;;;;;;;0.25;0.10;;;;;;;24.79;50.63;102433.38;5051934;28;20025;-66
2022/04/19 09:21:59;;;;;;;1.50;0.40;;;;;;;24.79;49.47;102429.78;5052154;28;20031;-66
2022/04/19 09:24:27;;;;;;;0.95;0.22;;;;;;;24.80;50.40;102432.34;5051989;28;20033;-66
2022/04/19 09:26:53;;;;;;;0.47;0.30;;;;;;;24.80;52.82;102435.09;5052383;28;20400;-66
2022/04/19 09:29:27;;;;;;;0.55;0.20;;;;;;;24.81;50.92;102438.72;5051906;28;20021;-66
2022/04/19 09:31:58;;;;;;;1.83;0.32;;;;;;;24.84;51.73;102430.97;5052129;28;20036;-66
2022/04/19 09:34:28;;;;;;;0.40;0.30;;;;;;;24.81;47.17;102434.06;5051923;28;20025;-66
2022/04/19 09:37:04;;;;;;;0.80;0.47;;;;;;;24.81;50.29;102438.72;5052045;28;20468;-66
2022/04/19 09:39:29;;;;;;;0.38;0.10;;;;;;;24.82;49.78;102430.28;5055018;28;20013;-66
2022/04/19 09:42:04;;;;;;;0.40;0.10;;;;;;;24.79;50.74;102430.63;5053883;28;20079;-65
2022/04/19 09:44:29;;;;;;;0.40;0.10;;;;;;;24.79;50.06;102425.13;5052073;28;20319;-66
2022/04/19 09:47:06;;;;;;;0.35;0.30;;;;;;;24.80;49.57;102429.59;5051957;28;20024;-66
2022/04/19 09:49:44;;;;;;;0.57;0.10;;;;;;;24.82;50.85;102422.03;5050463;28;20067;-66
2022/04/19 09:52:15;;;;;;;0.30;0.15;;;;;;;24.81;49.26;102412.06;5050783;28;20041;-65
2022/04/19 09:54:44;;;;;;;0.28;0.10;;;;;;;24.80;49.39;102404.00;5045573;28;20024;-66
2022/04/19 09:57:09;;;;;;;0.50;0.10;;;;;;;24.81;49.85;102406.56;5049090;28;20033;-65
2022/04/19 09:59:44;;;;;;;0.80;0.20;;;;;;;24.83;48.26;102411.88;5054891;28;20463;-65
2022/04/19 10:10:26;;;;;;;0.70;0.22;;;;;;;24.80;49.99;102431.50;5054560;28;20032;-66
2022/04/19 10:12:53;;;;;;;0.45;0.03;;;;;;;24.84;49.48;102422.72;5055521;28;20021;-65
2022/04/19 10:15:19;;;;;;;0.75;0.20;;;;;;;24.85;47.31;102424.41;5056257;28;20483;-66
2022/04/19 10:17:46;;;;;;;0.55;0.15;;;;;;;24.80;49.69;102421.34;5055452;28;20029;-66
2022/04/19 10:20:13;;;;;;;1.35;0.22;;;;;;;24.79;49.25;102425.13;5057207;28;20021;-66
2022/04/19 10:22:48;;;;;;;0.57;0.20;;;;;;;24.81;50.68;102417.56;5054738;28;20472;-65
2022/04/19 10:25:14;;;;;;;0.10;0.10;;;;;;;24.80;49.64;102415.84;5054726;28;20606;-66
2022/04/19 10:27:40;;;;;;;0.52;0.13;;;;;;;24.81;49.73;102417.56;5054591;28;20099;-66
2022/04/19 10:30:07;;;;;;;0.10;0.10;;;;;;;24.88;50.10;102418.59;5054637;28;20053;-66
2022/04/19 10:32:33;;;;;;;0.68;0.20;;;;;;;24.81;50.15;102417.56;5054873;28;20106;-66
2022/04/19 10:35:03;;;;;;;0.20;0.10;;;;;;;24.82;46.63;102413.78;5054472;28;20473;-66
2022/04/19 10:37:29;;;;;;;0.20;0.10;;;;;;;24.84;48.68;102411.72;5054358;28;20025;-66
2022/04/19 10:39:57;;;;;;;0.25;0.25;;;;;;;24.85;48.83;102402.41;5054558;28;20032;-66
2022/04/19 10:42:32;;;;;;;0.20;0.10;;;;;;;24.82;47.22;102394.53;5054375;28;20476;-65
2022/04/19 10:45:13;;;;;;;0.45;0.10;;;;;;;24.82;49.29;102405.53;5054553;28;20048;-66
2022/04/19 10:48:02;;;;;;;0.90;0.15;;;;;;;24.84;49.90;102406.19;5054685;28;20029;-65
2022/04/19 10:50:33;;;;;;;0.52;0.10;;;;;;;24.80;47.15;102396.59;4972966;28;20117;-66
2022/04/19 10:53:00;;;;;;;0.47;0.17;;;;;;;24.82;48.44;102402.78;4956521;28;20125;-66
2022/04/19 10:55:28;;;;;;;0.20;0.13;;;;;;;24.85;48.75;102399.66;4972874;28;20066;-66
2022/04/19 10:58:12;;;;;;;0.65;0.20;;;;;;;24.84;49.66;102408.94;4973037;28;20058;-65
2022/04/19 11:00:40;;;;;;;0.73;0.22;;;;;;;24.82;48.50;102413.78;4973019;28;20027;-66
2022/04/19 11:03:26;;;;;;;0.30;0.10;;;;;;;24.84;46.49;102416.34;4972986;28;20030;-66
2022/04/19 11:05:53;;;;;;;0.20;0.10;;;;;;;24.86;47.65;102415.16;4972472;28;20038;-65
2022/04/19 11:08:24;;;;;;;0.43;0.20;;;;;;;24.85;47.99;102418.91;4976039;28;20035;-66
2022/04/19 11:11:02;;;;;;;0.95;0.17;;;;;;;24.83;49.05;102415.50;4972756;28;20038;-66
2022/04/19 11:13:31;;;;;;;0.17;0.10;;;;;;;24.88;48.90;102413.09;4972805;28;20035;-65
2022/04/19 11:16:00;;;;;;;0.77;0.40;;;;;;;24.84;47.62;102414.47;4956929;28;20386;-66
2022/04/19 11:18:27;;;;;;;1.55;0.35;;;;;;;24.88;48.09;102424.09;4972486;28;20030;-66
2022/04/19 11:21:04;;;;;;;0.73;0.20;;;;;;;24.85;49.49;102424.41;4956347;28;20034;-66
2022/04/19 11:23:44;;;;;;;0.50;0.20;;;;;;;24.84;48.54;102419.09;4972486;28;20031;-66
2022/04/19 11:26:24;;;;;;;0.20;0.10;;;;;;;24.85;49.11;102420.81;4972365;28;20031;-66
2022/04/19 11:29:08;;;;;;;0.22;0.10;;;;;;;24.86;49.18;102415.16;5053487;28;20053;-66
2022/04/19 11:31:34;;;;;;;1.17;0.17;;;;;;;24.82;50.31;102418.41;5053435;28;20036;-66
2022/04/19 11:33:59;;;;;;;0.40;0.20;;;;;;;24.83;48.37;102421.00;5053555;28;20443;-66
2022/04/19 11:36:26;;;;;;;0.00;0.00;;;;;;;24.88;49.15;102424.09;5052089;28;20475;-66
2022/04/19 11:38:52;;;;;;;0.65;0.30;;;;;;;24.89;50.06;102413.94;5054117;28;20032;-66
2022/04/19 11:46:44;;;;;;;0.30;0.10;;;;;;;24.86;48.28;102417.06;5053672;28;20112;-66
2022/04/19 11:46:56;;;;;;;0.68;0.20;;;;;;;24.85;49.37;102416.16;5055376;28;20029;-64
2022/04/19 11:49:22;;;;;;;0.70;0.20;;;;;;;24.86;48.90;102415.16;5054188;28;20468;-65
2022/04/19 11:51:52;;;;;;;1.23;0.20;;;;;;;24.92;50.24;102413.59;5052998;28;20025;-66
2022/04/19 11:54:19;;;;;;;1.30;0.50;;;;;;;24.87;49.12;102410.53;5052958;28;20609;-66
2022/04/19 11:56:44;;;;;;;0.80;0.20;;;;;;;24.89;49.76;102409.31;5052913;28;20111;-66
2022/04/19 11:59:10;;;;;;;0.40;0.10;;;;;;;24.84;49.34;102411.72;5052926;28;20036;-66
2022/04/19 12:01:36;;;;;;;0.90;0.30;;;;;;;24.87;49.13;102400.38;5052844;28;20025;-65